Time;durP1;ratioP1;P1;durP2;ratioP2;P2;SDS_P1;SDS_P2;PMS_P1;PMS_P2;Temp;Humidity;BMP_temperature;BMP_pressure;BME280_temperature;BME280_humidity;BME280_pressure;Samples;Min_cycle;Max_cycle;Signal;HPM_P1;HPM_P2
2022/12/03 00:00:27;;;;;;;32.88;10.30;;;;;;;;;;4975857;28;20031;-73
2022/12/03 00:02:52;;;;;;;33.25;10.57;;;;;;;;;;4977634;28;20038;-73
2022/12/03 00:05:18;;;;;;;38.85;10.70;;;;;;;;;;4975675;28;20408;-74
2022/12/03 00:07:43;;;;;;;32.33;9.73;;;;;;;;;;4983360;28;20029;-73
2022/12/03 00:10:09;;;;;;;25.33;9.55;;;;;;;;;;4980760;28;20073;-73
2022/12/03 00:12:34;;;;;;;28.35;9.82;;;;;;;;;;4980380;28;20486;-73
2022/12/03 00:15:00;;;;;;;26.75;8.25;;;;;;;;;;4980299;28;20471;-73
2022/12/03 00:17:25;;;;;;;27.30;8.52;;;;;;;;;;4980280;28;20050;-73
2022/12/03 00:19:51;;;;;;;31.20;9.50;;;;;;;;;;4982711;28;20125;-72
2022/12/03 00:22:16;;;;;;;25.75;8.93;;;;;;;;;;4991550;28;20037;-72
2022/12/03 00:24:41;;;;;;;20.92;8.52;;;;;;;;;;4986804;28;20505;-72
2022/12/03 00:27:07;;;;;;;21.70;8.63;;;;;;;;;;4980726;28;20109;-73
2022/12/03 00:29:32;;;;;;;24.60;8.40;;;;;;;;;;4986877;28;20058;-72
2022/12/03 00:31:57;;;;;;;19.17;7.25;;;;;;;;;;4979661;28;20093;-72
2022/12/03 00:34:23;;;;;;;19.35;7.75;;;;;;;;;;4978722;28;20039;-73
2022/12/03 00:36:48;;;;;;;18.50;7.78;;;;;;;;;;4978311;28;20042;-72
2022/12/03 00:39:13;;;;;;;18.23;7.20;;;;;;;;;;4978103;28;20486;-73
2022/12/03 00:41:39;;;;;;;20.05;7.53;;;;;;;;;;4976641;28;20035;-72
2022/12/03 00:44:04;;;;;;;23.75;7.68;;;;;;;;;;4975822;28;20410;-73
2022/12/03 00:46:30;;;;;;;13.48;5.35;;;;;;;;;;4978575;28;20545;-72
2022/12/03 00:48:55;;;;;;;14.05;5.60;;;;;;;;;;4975509;28;20138;-72
2022/12/03 00:51:20;;;;;;;26.98;6.40;;;;;;;;;;4980896;28;20534;-73
2022/12/03 00:53:46;;;;;;;18.70;6.30;;;;;;;;;;4981859;28;20058;-72
2022/12/03 00:56:11;;;;;;;16.38;5.80;;;;;;;;;;4978985;28;20042;-73
2022/12/03 00:58:36;;;;;;;12.43;5.35;;;;;;;;;;4984916;28;20368;-72
2022/12/03 01:01:02;;;;;;;14.20;5.57;;;;;;;;;;4980374;28;20043;-72
2022/12/03 01:03:27;;;;;;;14.85;5.25;;;;;;;;;;4977299;28;20387;-72
2022/12/03 01:05:53;;;;;;;16.23;6.15;;;;;;;;;;4985853;28;20042;-73
2022/12/03 01:08:18;;;;;;;13.80;5.63;;;;;;;;;;4976997;28;20030;-73
2022/12/03 01:10:43;;;;;;;9.30;3.40;;;;;;;;;;4975030;28;20474;-73
2022/12/03 01:13:09;;;;;;;17.95;5.93;;;;;;;;;;4976398;28;20041;-73
2022/12/03 01:15:34;;;;;;;12.25;4.80;;;;;;;;;;4983261;28;20190;-73
2022/12/03 01:18:00;;;;;;;13.30;5.80;;;;;;;;;;4976273;28;20474;-73
2022/12/03 01:20:26;;;;;;;16.10;5.53;;;;;;;;;;4980651;28;20043;-73
2022/12/03 01:22:51;;;;;;;14.60;5.55;;;;;;;;;;4982279;28;20066;-73
2022/12/03 01:25:17;;;;;;;17.45;5.72;;;;;;;;;;4974854;28;20498;-72
2022/12/03 01:27:42;;;;;;;11.88;5.30;;;;;;;;;;4982372;28;20030;-73
2022/12/03 01:30:09;;;;;;;14.85;5.63;;;;;;;;;;4976428;28;20089;-73
2022/12/03 01:32:34;;;;;;;16.52;5.47;;;;;;;;;;4984621;28;20045;-73
2022/12/03 01:35:00;;;;;;;11.18;5.47;;;;;;;;;;4985704;28;20023;-72
2022/12/03 01:37:26;;;;;;;18.02;5.65;;;;;;;;;;4977732;28;20133;-73
2022/12/03 01:39:51;;;;;;;11.95;4.25;;;;;;;;;;4983842;28;20053;-72
2022/12/03 01:42:23;;;;;;;11.57;4.78;;;;;;;;;;4975907;28;20041;-73
2022/12/03 01:44:55;;;;;;;15.23;5.03;;;;;;;;;;4978754;28;20038;-72
2022/12/03 01:47:24;;;;;;;15.50;5.80;;;;;;;;;;4975485;28;20070;-72
2022/12/03 01:50:00;;;;;;;16.17;5.18;;;;;;;;;;4975378;28;20042;-72
2022/12/03 01:52:29;;;;;;;12.25;4.80;;;;;;;;;;4975672;28;20553;-73
2022/12/03 01:55:00;;;;;;;11.57;5.10;;;;;;;;;;4973353;28;20035;-72
2022/12/03 01:57:39;;;;;;;12.65;4.85;;;;;;;;;;4978303;28;20050;-72
2022/12/03 02:00:05;;;;;;;14.77;4.57;;;;;;;;;;4976703;28;20092;-72
2022/12/03 02:02:31;;;;;;;15.73;5.47;;;;;;;;;;4978471;28;20394;-73
2022/12/03 02:04:57;;;;;;;9.73;4.60;;;;;;;;;;4986285;28;20042;-72
2022/12/03 02:07:26;;;;;;;13.75;4.78;;;;;;;;;;4990137;28;20034;-72
2022/12/03 02:09:53;;;;;;;11.43;4.28;;;;;;;;;;4975521;28;20065;-72
2022/12/03 02:12:26;;;;;;;14.13;5.05;;;;;;;;;;4984027;28;20474;-73
2022/12/03 02:14:52;;;;;;;9.80;4.50;;;;;;;;;;4988417;28;20085;-72
2022/12/03 02:17:17;;;;;;;14.25;5.22;;;;;;;;;;4982588;28;20479;-73
2022/12/03 02:19:43;;;;;;;11.07;4.82;;;;;;;;;;4992618;28;20041;-73
2022/12/03 02:22:17;;;;;;;13.98;4.70;;;;;;;;;;4991144;28;20113;-73
2022/12/03 02:24:48;;;;;;;12.50;4.80;;;;;;;;;;4992760;28;20569;-72
2022/12/03 02:27:13;;;;;;;13.05;5.47;;;;;;;;;;4982749;28;20046;-73
2022/12/03 02:29:39;;;;;;;9.45;4.45;;;;;;;;;;4981392;28;20467;-73
2022/12/03 02:32:04;;;;;;;10.75;4.25;;;;;;;;;;4982260;28;20039;-72
2022/12/03 02:34:32;;;;;;;13.13;5.18;;;;;;;;;;4985439;28;20043;-73
2022/12/03 02:36:58;;;;;;;11.65;4.78;;;;;;;;;;4984446;28;20426;-73
2022/12/03 02:39:23;;;;;;;12.18;4.75;;;;;;;;;;4983529;28;20039;-73
2022/12/03 02:44:33;;;;;;;;;;;;;;;;;;4989432;28;20569;-73
2022/12/03 02:46:59;;;;;;;15.50;5.38;;;;;;;;;;4985622;28;19917;-72
2022/12/03 02:49:25;;;;;;;11.23;4.43;;;;;;;;;;4986906;28;20493;-73
2022/12/03 02:51:50;;;;;;;8.82;4.28;;;;;;;;;;4980395;28;20027;-72
2022/12/03 02:54:15;;;;;;;16.45;5.32;;;;;;;;;;4992748;28;20406;-73
2022/12/03 02:56:41;;;;;;;14.35;4.43;;;;;;;;;;4988628;28;20061;-73
2022/12/03 02:59:06;;;;;;;11.75;4.95;;;;;;;;;;4985609;28;20106;-72
2022/12/03 03:01:33;;;;;;;10.27;4.85;;;;;;;;;;4982127;28;20486;-73
2022/12/03 03:03:59;;;;;;;8.10;3.15;;;;;;;;;;4984245;28;20038;-73
2022/12/03 03:06:25;;;;;;;11.98;4.95;;;;;;;;;;4982004;28;20081;-73
2022/12/03 03:08:50;;;;;;;11.98;5.03;;;;;;;;;;4988882;28;20046;-72
2022/12/03 03:11:16;;;;;;;18.20;5.57;;;;;;;;;;4989745;28;20034;-73
2022/12/03 03:13:41;;;;;;;15.05;6.47;;;;;;;;;;4981609;28;20459;-73
2022/12/03 03:16:07;;;;;;;8.77;4.00;;;;;;;;;;4977318;28;20039;-72
2022/12/03 03:18:33;;;;;;;11.40;5.25;;;;;;;;;;4993399;28;20038;-73
2022/12/03 03:20:59;;;;;;;13.10;5.22;;;;;;;;;;4992917;28;20030;-72
2022/12/03 03:23:25;;;;;;;18.90;5.70;;;;;;;;;;4988688;28;20112;-73
2022/12/03 03:26:06;;;;;;;18.88;5.25;;;;;;;;;;4977916;28;20042;-72
2022/12/03 03:28:34;;;;;;;14.70;5.38;;;;;;;;;;4979371;28;20035;-72
2022/12/03 03:31:01;;;;;;;13.85;5.10;;;;;;;;;;4975224;28;20045;-73
2022/12/03 03:33:26;;;;;;;13.82;5.93;;;;;;;;;;4984347;28;20117;-73
2022/12/03 03:35:52;;;;;;;13.77;4.80;;;;;;;;;;4982885;28;20121;-73
2022/12/03 03:38:18;;;;;;;13.15;6.32;;;;;;;;;;4994727;28;20045;-73
2022/12/03 03:40:44;;;;;;;14.27;6.00;;;;;;;;;;4982843;28;20069;-73
2022/12/03 03:43:10;;;;;;;14.88;6.28;;;;;;;;;;4984768;28;20062;-74
2022/12/03 03:45:35;;;;;;;22.73;7.82;;;;;;;;;;4980288;28;20047;-73
2022/12/03 03:48:01;;;;;;;15.73;6.25;;;;;;;;;;4982544;28;20414;-73
2022/12/03 03:50:27;;;;;;;18.33;6.15;;;;;;;;;;4979915;28;20039;-73
2022/12/03 03:52:53;;;;;;;13.52;6.13;;;;;;;;;;4985355;28;20042;-73
2022/12/03 03:55:19;;;;;;;20.60;5.90;;;;;;;;;;4977926;28;20110;-73
2022/12/03 03:57:45;;;;;;;14.10;5.53;;;;;;;;;;4978613;28;20471;-73
2022/12/03 04:00:11;;;;;;;15.88;6.53;;;;;;;;;;4984457;28;20755;-73
2022/12/03 04:02:36;;;;;;;17.65;6.38;;;;;;;;;;4983882;28;20034;-73
2022/12/03 04:05:02;;;;;;;10.57;4.13;;;;;;;;;;4980857;28;20097;-73
2022/12/03 04:07:27;;;;;;;11.88;5.10;;;;;;;;;;4984387;28;20057;-73
2022/12/03 04:09:53;;;;;;;16.95;5.53;;;;;;;;;;4976474;28;20429;-73
2022/12/03 04:15:02;;;;;;;18.83;5.85;;;;;;;;;;4968662;28;20097;-73
2022/12/03 04:17:28;;;;;;;18.98;5.68;;;;;;;;;;4974540;28;20039;-73
2022/12/03 04:19:53;;;;;;;17.55;5.88;;;;;;;;;;4987052;28;20463;-73
2022/12/03 04:30:31;;;;;;;16.73;5.30;;;;;;;;;;4977952;28;20169;-72
2022/12/03 04:35:43;;;;;;;12.50;5.07;;;;;;;;;;4976592;28;20089;-72
2022/12/03 04:38:13;;;;;;;15.75;5.22;;;;;;;;;;4982040;28;20074;-73
2022/12/03 04:43:23;;;;;;;14.63;4.80;;;;;;;;;;4980175;28;20069;-73
2022/12/03 04:45:49;;;;;;;24.00;5.72;;;;;;;;;;4974818;28;20467;-73
2022/12/03 04:48:14;;;;;;;11.48;5.13;;;;;;;;;;4984972;28;20051;-73
2022/12/03 04:50:39;;;;;;;14.88;5.32;;;;;;;;;;4978289;28;20034;-73
2022/12/03 04:53:05;;;;;;;13.48;5.22;;;;;;;;;;4982014;28;20457;-73
2022/12/03 04:55:30;;;;;;;22.60;5.75;;;;;;;;;;4982852;28;20026;-73
2022/12/03 04:57:56;;;;;;;16.25;5.22;;;;;;;;;;4979680;28;20088;-72
2022/12/03 05:00:21;;;;;;;13.82;5.50;;;;;;;;;;4984419;28;20046;-73
2022/12/03 05:02:46;;;;;;;15.00;5.10;;;;;;;;;;4982849;28;20498;-72
2022/12/03 05:05:12;;;;;;;10.85;5.28;;;;;;;;;;4972633;28;20166;-73
2022/12/03 05:07:37;;;;;;;16.42;5.78;;;;;;;;;;4988001;28;20038;-73
2022/12/03 05:10:04;;;;;;;11.63;5.15;;;;;;;;;;4981157;28;20035;-73
2022/12/03 05:12:29;;;;;;;18.77;5.75;;;;;;;;;;4973883;28;20039;-73
2022/12/03 05:14:54;;;;;;;12.82;5.43;;;;;;;;;;4976630;28;20031;-73
2022/12/03 05:17:20;;;;;;;18.20;5.50;;;;;;;;;;4980828;28;20038;-73
2022/12/03 05:22:29;;;;;;;17.35;4.55;;;;;;;;;;4985454;28;20057;-73
2022/12/03 05:24:55;;;;;;;18.63;5.72;;;;;;;;;;4988776;28;20030;-72
2022/12/03 05:27:23;;;;;;;11.02;4.28;;;;;;;;;;4984695;28;20437;-73
2022/12/03 05:29:48;;;;;;;12.63;5.53;;;;;;;;;;4985558;28;20211;-72
2022/12/03 05:32:14;;;;;;;14.48;4.75;;;;;;;;;;4978818;28;20427;-73
2022/12/03 05:34:39;;;;;;;14.45;5.35;;;;;;;;;;4983566;28;20050;-73
2022/12/03 05:37:04;;;;;;;12.20;5.65;;;;;;;;;;4980473;28;20035;-73
2022/12/03 05:39:30;;;;;;;16.50;4.90;;;;;;;;;;4979349;28;20030;-73
2022/12/03 05:44:39;;;;;;;15.10;4.68;;;;;;;;;;4974756;28;20042;-73
2022/12/03 05:47:04;;;;;;;11.55;4.13;;;;;;;;;;4978225;28;20050;-72
2022/12/03 05:49:30;;;;;;;12.75;4.35;;;;;;;;;;4978159;28;20047;-73
2022/12/03 05:51:55;;;;;;;10.70;4.10;;;;;;;;;;4976135;28;20030;-73
2022/12/03 05:54:20;;;;;;;7.80;4.03;;;;;;;;;;4982616;28;20490;-73
2022/12/03 05:56:46;;;;;;;12.23;4.93;;;;;;;;;;4975268;28;20114;-73
2022/12/03 05:59:11;;;;;;;9.55;4.28;;;;;;;;;;4980834;28;20536;-73
2022/12/03 06:01:37;;;;;;;10.05;4.05;;;;;;;;;;4975984;28;20066;-73
2022/12/03 06:04:02;;;;;;;13.23;4.30;;;;;;;;;;4987422;28;20414;-73
2022/12/03 06:06:27;;;;;;;10.32;3.78;;;;;;;;;;4978476;28;20045;-72
2022/12/03 06:08:53;;;;;;;13.20;4.00;;;;;;;;;;4982869;28;20039;-73
2022/12/03 06:11:18;;;;;;;19.17;4.38;;;;;;;;;;4978199;28;20497;-73
2022/12/03 06:13:43;;;;;;;15.65;4.07;;;;;;;;;;4975833;28;20039;-73
2022/12/03 06:16:09;;;;;;;14.38;4.07;;;;;;;;;;4974366;28;20030;-72
2022/12/03 06:18:34;;;;;;;13.63;4.22;;;;;;;;;;4984079;28;20495;-73
2022/12/03 06:20:59;;;;;;;10.20;4.50;;;;;;;;;;4981175;28;20125;-72
2022/12/03 06:23:25;;;;;;;16.90;4.07;;;;;;;;;;4983744;28;20039;-73
2022/12/03 06:25:50;;;;;;;14.20;4.20;;;;;;;;;;4975007;28;20117;-73
2022/12/03 06:28:15;;;;;;;12.25;3.80;;;;;;;;;;4974108;28;20050;-73
2022/12/03 06:30:41;;;;;;;13.93;4.10;;;;;;;;;;4983168;28;20037;-73
2022/12/03 06:33:06;;;;;;;6.68;3.22;;;;;;;;;;4986947;28;20033;-73
2022/12/03 06:35:31;;;;;;;13.35;4.35;;;;;;;;;;4985756;28;20073;-73
2022/12/03 06:37:57;;;;;;;8.07;3.92;;;;;;;;;;4983934;28;20542;-72
2022/12/03 06:40:23;;;;;;;9.35;4.00;;;;;;;;;;4976128;28;20026;-73
2022/12/03 06:42:49;;;;;;;12.10;4.32;;;;;;;;;;4975511;28;20023;-73
2022/12/03 06:45:14;;;;;;;8.98;3.60;;;;;;;;;;4973522;28;20042;-73
2022/12/03 06:47:40;;;;;;;10.73;3.47;;;;;;;;;;4973730;28;20058;-73
2022/12/03 06:50:06;;;;;;;12.57;4.32;;;;;;;;;;4979849;28;20066;-72
2022/12/03 06:52:32;;;;;;;12.88;3.20;;;;;;;;;;4986971;28;20042;-74
2022/12/03 06:54:57;;;;;;;11.07;3.92;;;;;;;;;;4987982;28;20042;-73
2022/12/03 06:57:22;;;;;;;8.48;3.63;;;;;;;;;;4990217;28;20439;-73
2022/12/03 06:59:48;;;;;;;16.40;3.88;;;;;;;;;;4965838;28;20034;-73
2022/12/03 07:02:13;;;;;;;11.77;3.60;;;;;;;;;;4981422;28;20391;-73
2022/12/03 07:04:38;;;;;;;9.82;3.47;;;;;;;;;;4979186;28;20043;-73
2022/12/03 07:07:04;;;;;;;12.75;4.18;;;;;;;;;;4981619;28;20039;-73
2022/12/03 07:09:29;;;;;;;9.05;4.30;;;;;;;;;;4983146;28;20066;-73
2022/12/03 07:11:55;;;;;;;12.77;4.15;;;;;;;;;;4978740;28;20035;-72
2022/12/03 07:14:20;;;;;;;12.88;3.78;;;;;;;;;;4986025;28;20113;-74
2022/12/03 07:16:46;;;;;;;13.13;4.53;;;;;;;;;;4978249;28;20466;-72
2022/12/03 07:19:12;;;;;;;10.88;4.35;;;;;;;;;;4989757;28;20504;-72
2022/12/03 07:21:37;;;;;;;6.57;2.55;;;;;;;;;;4978872;28;20057;-72
2022/12/03 07:24:03;;;;;;;11.85;4.07;;;;;;;;;;4990820;28;20061;-73
2022/12/03 07:26:28;;;;;;;8.82;4.00;;;;;;;;;;4978796;28;20061;-72
2022/12/03 07:28:53;;;;;;;11.45;4.75;;;;;;;;;;4977535;28;20497;-72
2022/12/03 07:31:19;;;;;;;8.68;3.92;;;;;;;;;;4976867;28;20483;-73
2022/12/03 07:33:45;;;;;;;15.00;4.32;;;;;;;;;;4980051;28;20023;-72
2022/12/03 07:36:10;;;;;;;12.70;4.72;;;;;;;;;;4979042;28;20513;-72
2022/12/03 07:38:36;;;;;;;9.00;3.85;;;;;;;;;;4985683;28;20034;-73
2022/12/03 07:41:01;;;;;;;12.57;4.57;;;;;;;;;;4924068;28;20466;-73
2022/12/03 07:43:27;;;;;;;10.32;4.45;;;;;;;;;;4900514;28;20057;-72
2022/12/03 07:45:52;;;;;;;13.43;4.40;;;;;;;;;;4976619;28;20026;-73
2022/12/03 07:48:17;;;;;;;16.58;3.80;;;;;;;;;;4976268;28;20479;-73
2022/12/03 07:50:58;;;;;;;12.43;4.40;;;;;;;;;;4954397;28;20145;-73
2022/12/03 07:53:23;;;;;;;18.35;4.82;;;;;;;;;;4976505;28;20114;-73
2022/12/03 07:55:49;;;;;;;10.75;4.32;;;;;;;;;;5006879;28;20114;-73
2022/12/03 07:58:14;;;;;;;9.88;4.00;;;;;;;;;;4976263;28;20121;-73
2022/12/03 08:00:40;;;;;;;15.43;4.22;;;;;;;;;;4974622;28;20038;-72
2022/12/03 08:03:05;;;;;;;9.57;4.15;;;;;;;;;;4975697;28;20096;-73
2022/12/03 08:05:30;;;;;;;16.05;4.72;;;;;;;;;;4975410;28;20046;-73
2022/12/03 08:07:56;;;;;;;11.40;3.53;;;;;;;;;;4975921;28;20106;-73
2022/12/03 08:10:22;;;;;;;10.82;3.63;;;;;;;;;;4976209;28;20049;-73
2022/12/03 08:12:48;;;;;;;11.98;3.80;;;;;;;;;;4974971;28;20069;-72
2022/12/03 08:15:16;;;;;;;12.45;3.70;;;;;;;;;;4965195;28;20121;-73
2022/12/03 08:17:44;;;;;;;12.88;4.45;;;;;;;;;;4971075;28;20375;-73
2022/12/03 08:20:19;;;;;;;9.60;3.78;;;;;;;;;;4973121;28;20027;-73
2022/12/03 08:22:46;;;;;;;10.63;3.60;;;;;;;;;;4971773;28;20042;-72
2022/12/03 08:25:19;;;;;;;16.55;4.25;;;;;;;;;;4959154;28;20142;-73
2022/12/03 08:27:44;;;;;;;10.18;3.65;;;;;;;;;;4972437;28;20050;-73
2022/12/03 08:30:12;;;;;;;10.68;3.80;;;;;;;;;;4972346;28;20039;-72
2022/12/03 08:32:38;;;;;;;12.18;3.85;;;;;;;;;;4968222;28;20051;-73
2022/12/03 08:35:14;;;;;;;14.80;3.72;;;;;;;;;;4973198;28;20074;-73
2022/12/03 08:37:40;;;;;;;13.55;4.03;;;;;;;;;;4802150;28;20166;-73
2022/12/03 08:40:35;;;;;;;9.02;3.63;;;;;;;;;;4927099;28;20138;-72
2022/12/03 08:43:00;;;;;;;7.30;3.80;;;;;;;;;;4928156;29;20044;-73
2022/12/03 08:45:31;;;;;;;11.40;3.70;;;;;;;;;;4951361;29;20443;-72
2022/12/03 08:48:07;;;;;;;14.52;4.28;;;;;;;;;;4946868;28;20055;-72
2022/12/03 08:50:37;;;;;;;9.60;4.18;;;;;;;;;;4937121;28;20043;-72
2022/12/03 08:53:12;;;;;;;10.52;3.35;;;;;;;;;;4951589;28;20055;-73
2022/12/03 08:55:37;;;;;;;;;;;;;;;;;;4972605;28;20055;-73
2022/12/03 08:58:29;;;;;;;7.75;3.35;;;;;;;;;;4978900;28;19928;-72
2022/12/03 09:01:05;;;;;;;9.13;3.88;;;;;;;;;;4976736;28;20050;-73
2022/12/03 09:03:30;;;;;;;16.05;3.95;;;;;;;;;;4985027;28;20134;-73
2022/12/03 09:05:56;;;;;;;6.78;3.22;;;;;;;;;;4984719;28;20121;-72
2022/12/03 09:08:21;;;;;;;10.20;3.97;;;;;;;;;;4980463;28;20620;-72
2022/12/03 09:10:47;;;;;;;10.85;4.00;;;;;;;;;;4984507;28;20022;-73
2022/12/03 09:13:12;;;;;;;8.50;3.30;;;;;;;;;;4990232;28;20478;-73
2022/12/03 09:15:37;;;;;;;10.20;3.85;;;;;;;;;;4981286;28;20046;-73
2022/12/03 09:18:03;;;;;;;8.68;3.50;;;;;;;;;;4979852;28;20463;-73
2022/12/03 09:20:28;;;;;;;11.63;3.05;;;;;;;;;;4979724;28;20081;-73
2022/12/03 09:22:54;;;;;;;11.82;3.42;;;;;;;;;;4974754;28;20493;-73
2022/12/03 09:25:19;;;;;;;8.00;4.50;;;;;;;;;;4983952;28;20046;-74
2022/12/03 09:27:44;;;;;;;9.18;3.45;;;;;;;;;;4983444;28;20038;-73
2022/12/03 09:30:10;;;;;;;10.57;3.65;;;;;;;;;;4977990;28;20445;-73
2022/12/03 09:32:36;;;;;;;4.88;2.00;;;;;;;;;;4978698;28;20103;-72
2022/12/03 09:35:01;;;;;;;10.77;3.60;;;;;;;;;;4982067;28;20044;-73
2022/12/03 09:37:27;;;;;;;6.57;3.08;;;;;;;;;;4964829;28;20038;-73
2022/12/03 09:39:53;;;;;;;6.78;3.33;;;;;;;;;;4978954;28;20031;-74
2022/12/03 09:42:18;;;;;;;8.80;3.20;;;;;;;;;;4984396;28;20084;-73
2022/12/03 09:44:44;;;;;;;11.15;3.15;;;;;;;;;;4974016;28;20173;-73
2022/12/03 09:47:09;;;;;;;8.85;2.80;;;;;;;;;;4980239;28;20047;-73
2022/12/03 09:49:36;;;;;;;6.20;3.08;;;;;;;;;;4953933;28;20077;-73
2022/12/03 09:52:03;;;;;;;8.57;3.08;;;;;;;;;;4978517;28;20394;-73
2022/12/03 09:54:29;;;;;;;7.55;3.13;;;;;;;;;;4977072;28;20031;-73
2022/12/03 09:56:56;;;;;;;6.07;3.05;;;;;;;;;;4977125;28;20035;-73
2022/12/03 09:59:23;;;;;;;8.40;2.83;;;;;;;;;;4988453;28;20187;-73
2022/12/03 10:01:48;;;;;;;12.20;3.50;;;;;;;;;;4977603;28;20117;-73
2022/12/03 10:04:13;;;;;;;5.03;2.92;;;;;;;;;;4987069;28;20081;-73
2022/12/03 10:06:39;;;;;;;11.02;3.33;;;;;;;;;;4977965;28;20129;-73
2022/12/03 10:09:05;;;;;;;7.47;3.50;;;;;;;;;;4977510;28;20034;-72
2022/12/03 10:11:33;;;;;;;5.68;2.90;;;;;;;;;;4977441;28;20043;-74
2022/12/03 10:13:58;;;;;;;13.65;2.85;;;;;;;;;;4983856;28;20490;-73
2022/12/03 10:16:24;;;;;;;8.55;2.95;;;;;;;;;;4987172;28;20042;-73
2022/12/03 10:18:52;;;;;;;9.88;2.65;;;;;;;;;;4978981;28;20112;-73
2022/12/03 10:21:17;;;;;;;7.05;2.85;;;;;;;;;;4981343;28;20121;-73
2022/12/03 10:23:44;;;;;;;9.98;3.05;;;;;;;;;;4982309;28;20542;-73
2022/12/03 10:26:09;;;;;;;6.28;3.53;;;;;;;;;;4988817;28;20037;-73
2022/12/03 10:28:40;;;;;;;9.57;2.83;;;;;;;;;;4982881;28;20034;-73
2022/12/03 10:31:08;;;;;;;9.13;2.95;;;;;;;;;;4991357;28;20475;-73
2022/12/03 10:33:46;;;;;;;7.38;2.72;;;;;;;;;;4988013;28;20057;-73
2022/12/03 10:36:15;;;;;;;6.35;2.60;;;;;;;;;;4984228;28;20042;-72
2022/12/03 10:38:41;;;;;;;6.32;2.90;;;;;;;;;;4992855;28;20039;-73
2022/12/03 10:41:25;;;;;;;9.32;2.90;;;;;;;;;;4985193;28;20053;-73
2022/12/03 10:43:51;;;;;;;6.03;2.55;;;;;;;;;;4988178;28;20487;-72
2022/12/03 10:46:19;;;;;;;4.90;2.35;;;;;;;;;;4987052;28;20077;-72
2022/12/03 10:48:45;;;;;;;9.02;2.25;;;;;;;;;;4983288;28;20097;-73
2022/12/03 10:51:19;;;;;;;5.47;2.20;;;;;;;;;;4972590;28;20921;-74
2022/12/03 10:53:46;;;;;;;6.43;1.85;;;;;;;;;;4974571;28;20038;-73
2022/12/03 10:56:15;;;;;;;10.73;2.58;;;;;;;;;;4977830;28;20043;-73
2022/12/03 10:58:41;;;;;;;7.00;2.72;;;;;;;;;;4975557;28;20042;-73
2022/12/03 11:01:14;;;;;;;6.68;2.50;;;;;;;;;;4971657;28;20043;-74
2022/12/03 11:03:40;;;;;;;8.07;1.95;;;;;;;;;;4975785;28;20049;-73
2022/12/03 11:06:08;;;;;;;8.27;2.10;;;;;;;;;;4976762;28;20039;-73
2022/12/03 11:08:35;;;;;;;4.40;2.17;;;;;;;;;;4971802;28;20539;-72
2022/12/03 11:11:03;;;;;;;5.13;2.20;;;;;;;;;;4986695;28;20883;-73
2022/12/03 11:13:28;;;;;;;4.53;1.90;;;;;;;;;;4988230;28;20030;-73
2022/12/03 11:15:54;;;;;;;6.85;2.28;;;;;;;;;;4977861;28;20559;-72
2022/12/03 11:18:48;;;;;;;8.90;2.53;;;;;;;;;;4987401;28;20051;-73
2022/12/03 11:21:14;;;;;;;;;;;;;;;;;;4964667;28;20455;-73
2022/12/03 11:23:45;;;;;;;6.18;2.22;;;;;;;;;;4978242;28;20004;-73
2022/12/03 11:26:14;;;;;;;6.50;2.08;;;;;;;;;;4979336;28;20049;-73
2022/12/03 11:28:45;;;;;;;6.15;2.00;;;;;;;;;;4981610;28;20061;-73
2022/12/03 11:31:35;;;;;;;7.28;2.35;;;;;;;;;;4974846;28;20038;-73
2022/12/03 11:34:15;;;;;;;7.20;2.53;;;;;;;;;;4721803;28;20055;-73
2022/12/03 11:37:09;;;;;;;6.28;2.00;;;;;;;;;;4974048;28;20042;-72
2022/12/03 11:39:43;;;;;;;4.03;1.90;;;;;;;;;;4978377;28;20127;-73
2022/12/03 11:42:24;;;;;;;6.80;2.10;;;;;;;;;;4984696;28;20387;-73
2022/12/03 11:45:01;;;;;;;3.20;1.73;;;;;;;;;;4974652;28;20432;-73
2022/12/03 11:47:28;;;;;;;5.25;2.20;;;;;;;;;;4979057;28;20058;-73
2022/12/03 11:49:53;;;;;;;4.55;1.98;;;;;;;;;;4980998;28;20034;-73
2022/12/03 11:52:31;;;;;;;5.40;2.20;;;;;;;;;;4977049;28;20081;-72
2022/12/03 11:55:22;;;;;;;7.53;2.28;;;;;;;;;;4981774;28;20870;-73
2022/12/03 11:57:47;;;;;;;5.30;1.67;;;;;;;;;;4983433;28;20494;-73
2022/12/03 12:00:19;;;;;;;5.13;2.20;;;;;;;;;;4975492;28;20121;-73
2022/12/03 12:02:44;;;;;;;4.13;1.70;;;;;;;;;;4992465;28;20037;-73
2022/12/03 12:05:18;;;;;;;9.13;1.80;;;;;;;;;;4967907;28;20121;-72
2022/12/03 12:07:46;;;;;;;7.07;1.80;;;;;;;;;;4984842;28;20078;-73
2022/12/03 12:10:13;;;;;;;6.25;2.30;;;;;;;;;;4981329;28;20035;-73
2022/12/03 12:12:39;;;;;;;4.47;2.03;;;;;;;;;;4966879;28;20043;-73
2022/12/03 12:15:39;;;;;;;4.40;1.60;;;;;;;;;;4972587;28;20383;-74
2022/12/03 12:18:42;;;;;;;3.70;1.67;;;;;;;;;;4973727;28;20046;-73
2022/12/03 12:21:41;;;;;;;5.65;1.90;;;;;;;;;;5003605;28;20034;-74
2022/12/03 12:24:35;;;;;;;7.00;1.88;;;;;;;;;;4969310;28;20065;-73
2022/12/03 12:27:06;;;;;;;11.25;2.58;;;;;;;;;;4965315;28;20442;-73
2022/12/03 12:29:32;;;;;;;6.45;2.08;;;;;;;;;;4973622;28;20396;-72
2022/12/03 12:32:14;;;;;;;6.15;2.28;;;;;;;;;;4974384;28;20069;-73
2022/12/03 12:34:47;;;;;;;6.40;2.30;;;;;;;;;;4974538;28;20089;-72
2022/12/03 12:37:18;;;;;;;3.08;1.38;;;;;;;;;;4977671;28;20061;-73
2022/12/03 12:39:44;;;;;;;10.30;1.95;;;;;;;;;;4973738;28;21035;-73
2022/12/03 12:42:36;;;;;;;4.63;1.80;;;;;;;;;;4972854;28;20038;-73
2022/12/03 12:45:13;;;;;;;5.63;1.83;;;;;;;;;;4974162;28;20407;-73
2022/12/03 12:47:49;;;;;;;9.38;1.92;;;;;;;;;;5004463;28;20046;-73
2022/12/03 12:50:16;;;;;;;6.97;2.13;;;;;;;;;;4972732;28;20106;-73
2022/12/03 12:53:00;;;;;;;6.55;1.80;;;;;;;;;;4973709;28;20093;-72
2022/12/03 12:55:26;;;;;;;9.95;2.15;;;;;;;;;;4957165;28;20363;-74
2022/12/03 12:57:52;;;;;;;5.22;2.10;;;;;;;;;;4983187;28;20070;-73
2022/12/03 13:00:22;;;;;;;4.82;2.00;;;;;;;;;;4983142;28;20042;-73
2022/12/03 13:02:55;;;;;;;5.40;1.95;;;;;;;;;;4970291;28;20030;-73
2022/12/03 13:05:22;;;;;;;10.90;2.15;;;;;;;;;;4972143;28;20089;-72
2022/12/03 13:07:47;;;;;;;5.78;2.03;;;;;;;;;;4974480;28;20034;-73
2022/12/03 13:10:23;;;;;;;4.72;1.60;;;;;;;;;;4974530;28;20121;-72
2022/12/03 13:12:49;;;;;;;4.95;1.80;;;;;;;;;;4974422;28;20796;-73
2022/12/03 13:15:39;;;;;;;7.32;1.65;;;;;;;;;;4973211;28;20110;-72
2022/12/03 13:18:21;;;;;;;3.70;1.48;;;;;;;;;;4969040;28;20466;-73
2022/12/03 13:20:47;;;;;;;6.47;2.10;;;;;;;;;;4984231;28;20088;-73
2022/12/03 13:23:33;;;;;;;2.85;1.40;;;;;;;;;;4971370;28;20038;-73
2022/12/03 13:26:01;;;;;;;6.50;1.67;;;;;;;;;;4971978;28;20038;-73
2022/12/03 13:28:28;;;;;;;16.15;2.33;;;;;;;;;;4972847;28;20142;-72
2022/12/03 13:30:54;;;;;;;8.48;1.77;;;;;;;;;;4972865;28;20035;-73
2022/12/03 13:33:25;;;;;;;5.30;1.75;;;;;;;;;;4974260;28;20038;-73
2022/12/03 13:35:54;;;;;;;6.22;1.80;;;;;;;;;;4961035;28;20043;-73
2022/12/03 13:38:22;;;;;;;6.63;2.13;;;;;;;;;;4974364;28;20038;-73
2022/12/03 13:40:59;;;;;;;8.20;1.90;;;;;;;;;;4974186;28;20125;-73
2022/12/03 13:43:27;;;;;;;5.75;1.92;;;;;;;;;;4964581;28;20027;-74
2022/12/03 13:45:53;;;;;;;5.32;1.80;;;;;;;;;;4973211;28;20046;-73
2022/12/03 13:48:24;;;;;;;5.30;1.80;;;;;;;;;;4974233;28;20050;-73
2022/12/03 13:50:51;;;;;;;6.95;2.13;;;;;;;;;;4966409;28;20041;-74
2022/12/03 13:53:28;;;;;;;7.28;2.30;;;;;;;;;;4969338;28;20046;-73
2022/12/03 13:56:35;;;;;;;4.75;2.05;;;;;;;;;;4971115;28;20034;-73
2022/12/03 13:59:00;;;;;;;3.88;1.58;;;;;;;;;;4989969;28;20049;-73
2022/12/03 14:01:26;;;;;;;5.85;1.85;;;;;;;;;;4975490;28;20114;-73
2022/12/03 14:03:52;;;;;;;6.80;2.17;;;;;;;;;;4970537;28;20515;-74
2022/12/03 14:06:17;;;;;;;5.63;1.90;;;;;;;;;;4974218;28;20058;-73
2022/12/03 14:08:43;;;;;;;9.95;1.95;;;;;;;;;;4973084;28;20034;-73
2022/12/03 14:12:24;;;;;;;7.72;2.20;;;;;;;;;;4981936;28;20094;-73
2022/12/03 14:13:54;;;;;;;7.28;1.80;;;;;;;;;;4971631;28;20451;-73
2022/12/03 14:16:19;;;;;;;7.80;1.75;;;;;;;;;;4974997;28;20122;-73
2022/12/03 14:18:44;;;;;;;3.40;1.63;;;;;;;;;;4977036;28;20035;-73
2022/12/03 14:21:10;;;;;;;4.50;1.90;;;;;;;;;;4974952;28;20110;-73
2022/12/03 14:23:35;;;;;;;3.25;1.63;;;;;;;;;;4985697;28;20784;-72
2022/12/03 14:26:01;;;;;;;12.77;1.38;;;;;;;;;;4980417;28;20039;-73
2022/12/03 14:28:26;;;;;;;8.23;1.88;;;;;;;;;;4967423;28;20084;-75
2022/12/03 14:30:51;;;;;;;7.88;2.08;;;;;;;;;;4974772;28;20047;-73
2022/12/03 14:33:17;;;;;;;4.70;1.50;;;;;;;;;;4982625;28;20046;-73
2022/12/03 14:35:42;;;;;;;8.68;1.80;;;;;;;;;;4975410;28;20031;-73
2022/12/03 14:38:08;;;;;;;3.70;1.33;;;;;;;;;;4976712;28;20069;-73
2022/12/03 14:40:33;;;;;;;6.68;1.60;;;;;;;;;;4974196;28;20038;-73
2022/12/03 14:42:59;;;;;;;4.55;1.58;;;;;;;;;;4977114;28;20078;-72
2022/12/03 14:45:26;;;;;;;7.70;1.90;;;;;;;;;;4982259;28;20046;-73
2022/12/03 14:47:51;;;;;;;6.10;1.77;;;;;;;;;;4985775;28;20105;-73
2022/12/03 14:50:17;;;;;;;6.03;1.80;;;;;;;;;;4987238;28;20425;-73
2022/12/03 14:52:42;;;;;;;6.90;1.55;;;;;;;;;;4985419;28;20046;-72
2022/12/03 14:55:08;;;;;;;12.27;1.77;;;;;;;;;;4979455;28;20478;-73
2022/12/03 14:57:33;;;;;;;4.75;1.38;;;;;;;;;;4976820;28;20521;-73
2022/12/03 14:59:58;;;;;;;8.40;1.48;;;;;;;;;;4980182;28;20125;-72
2022/12/03 15:02:24;;;;;;;6.65;1.60;;;;;;;;;;4979416;28;20042;-73
2022/12/03 15:04:49;;;;;;;6.07;1.73;;;;;;;;;;4981630;28;20092;-73